Pine Meadows, New York
Current Conditions -  °F | °C
As of 6:54 AM on Wednesday 26 Nov 2014 (Local Time) from KFZY Reporting Station
Overcast Overcast  
Wind Chill: 35°   Ceiling: 3200
Heat Index: 35°   Visibility: 10mi
Dew Point: 25°   Wind: 0mph
Humidity: 67%   Direction: NA
Pressure: 30.21"   Gusts: NA
Location:  43.4945°N, 75.9612°W
Report Text: KFZY 261154Z AUTO 00000KT 10SM OVC032 02/M04 A3021 RMK AO2 SLP234 T00171039 10028 20017 53003
Loading
Personal Weather Stations






























Interactive Weather Map New forecast layout! Learn more

10-Day Weather Forecast

Advertisements
Track Severe Weather on mobile